createdAt,value
2022-09-10T00:02:34.740Z,47.07
2022-09-10T00:07:39.546Z,46.67
2022-09-10T00:12:46.796Z,46.83
2022-09-10T00:17:52.682Z,46.87
2022-09-10T00:22:57.606Z,46.83
2022-09-10T00:28:02.533Z,46.93
2022-09-10T00:33:07.563Z,47.33
2022-09-10T00:38:15.875Z,47.00
2022-09-10T00:43:23.506Z,46.55
2022-09-10T00:48:33.154Z,47.00
2022-09-10T00:53:39.056Z,47.57
2022-09-10T00:58:45.898Z,47.40
2022-09-10T01:03:52.435Z,47.43
2022-09-10T01:08:57.874Z,47.83
2022-09-10T01:14:14.991Z,47.67
2022-09-10T01:24:55.621Z,47.83
2022-09-10T01:30:20.337Z,46.70
2022-09-10T01:35:28.929Z,47.10
2022-09-10T01:40:35.618Z,47.17
2022-09-10T01:45:46.551Z,47.93
2022-09-10T01:50:57.904Z,47.97
2022-09-10T01:56:21.931Z,47.57
2022-09-10T02:01:39.166Z,47.55
2022-09-10T02:11:53.610Z,47.33
2022-09-10T02:17:00.820Z,47.00
2022-09-10T02:22:06.466Z,50.00
2022-09-10T02:37:24.361Z,47.30
2022-09-10T02:42:29.450Z,47.95
2022-09-10T02:47:35.231Z,47.47
2022-09-10T02:52:40.466Z,47.23
2022-09-10T02:57:45.815Z,47.10
2022-09-10T03:02:51.164Z,47.57
2022-09-10T03:07:57.410Z,48.00
2022-09-10T03:13:02.984Z,47.55
2022-09-10T03:18:09.259Z,47.30
2022-09-10T03:23:14.385Z,47.27
2022-09-10T03:28:19.798Z,47.10
2022-09-10T03:33:24.628Z,47.53
2022-09-10T03:38:30.578Z,47.40
2022-09-10T03:43:36.282Z,46.83
2022-09-10T03:48:44.244Z,46.70
2022-09-10T03:53:49.111Z,47.63
2022-09-10T03:58:54.084Z,46.93
2022-09-10T04:03:59.438Z,47.13
2022-09-10T04:09:05.088Z,46.77
2022-09-10T04:14:10.437Z,46.93
2022-09-10T04:19:17.882Z,46.57
2022-09-10T04:24:23.888Z,46.65
2022-09-10T04:29:29.187Z,46.70
2022-09-10T04:34:34.520Z,46.77
2022-09-10T04:39:40.322Z,46.57
2022-09-10T04:44:46.078Z,46.57
2022-09-10T04:49:51.315Z,45.67
2022-09-10T04:54:56.269Z,45.97
2022-09-10T05:00:01.432Z,45.87
2022-09-10T05:10:15.234Z,46.42
2022-09-10T05:15:20.632Z,46.77
2022-09-10T05:20:27.882Z,46.37
2022-09-10T05:25:35.041Z,46.40
2022-09-10T05:30:39.932Z,46.80
2022-09-10T05:35:45.347Z,47.40
2022-09-10T05:40:52.189Z,47.27
2022-09-10T05:45:57.507Z,47.83
2022-09-10T05:51:03.033Z,47.20
2022-09-10T05:56:08.525Z,46.93
2022-09-10T06:01:14.547Z,47.00
2022-09-10T06:06:20.051Z,46.77
2022-09-10T06:11:25.462Z,47.60
2022-09-10T06:29:47.958Z,47.70
2022-09-10T06:34:53.085Z,49.37
2022-09-10T06:39:58.053Z,49.40
2022-09-10T06:45:03.044Z,48.17
2022-09-10T06:50:09.425Z,47.80
2022-09-10T06:55:16.081Z,48.30
2022-09-10T07:00:22.231Z,47.93
2022-09-10T07:05:28.650Z,48.23
2022-09-10T07:15:38.877Z,47.95
2022-09-10T07:20:44.960Z,48.37
2022-09-10T07:25:50.257Z,48.52
2022-09-10T07:30:56.301Z,47.90
2022-09-10T07:36:02.507Z,48.50
2022-09-10T07:41:12.320Z,48.23
2022-09-10T07:46:22.311Z,48.73
2022-09-10T07:51:30.712Z,49.05
2022-09-10T07:56:37.924Z,49.17
2022-09-10T08:01:44.658Z,48.77
2022-09-10T08:06:49.923Z,48.80
2022-09-10T08:11:55.505Z,49.50
2022-09-10T08:17:01.832Z,48.78
2022-09-10T08:22:12.707Z,49.10
2022-09-10T08:27:16.369Z,48.50
2022-09-10T08:32:22.313Z,48.33
2022-09-10T08:42:40.513Z,48.67
2022-09-10T08:48:00.716Z,49.10
2022-09-10T08:53:16.991Z,49.05
2022-09-10T08:58:28.719Z,48.80
2022-09-10T09:03:41.861Z,49.10
2022-09-10T09:08:50.265Z,48.93
2022-09-10T09:14:13.524Z,48.83
2022-09-10T09:19:35.212Z,48.33
2022-09-10T09:24:55.319Z,48.30
2022-09-10T09:30:06.563Z,48.30
2022-09-10T09:35:30.436Z,48.33
2022-09-10T09:40:48.277Z,49.10
2022-09-10T09:45:54.579Z,49.40
2022-09-10T09:51:01.758Z,49.27
2022-09-10T09:56:16.158Z,49.17
2022-09-10T10:01:24.619Z,48.85
2022-09-10T10:06:39.858Z,49.23
2022-09-10T10:11:54.540Z,48.77
2022-09-10T10:17:01.843Z,48.97
2022-09-10T10:22:19.337Z,48.20
2022-09-10T10:27:27.713Z,48.60
2022-09-10T10:32:36.877Z,48.30
2022-09-10T10:38:07.592Z,48.15
2022-09-10T10:43:18.870Z,48.23
2022-09-10T10:48:45.176Z,48.20
2022-09-10T10:53:56.810Z,48.48
2022-09-10T10:59:17.650Z,47.87
2022-09-10T11:04:41.051Z,47.80
2022-09-10T11:10:04.423Z,49.27
2022-09-10T11:15:24.707Z,48.67
2022-09-10T11:20:39.064Z,49.00
2022-09-10T11:25:56.690Z,51.80
2022-09-10T11:31:14.234Z,52.10
2022-09-10T11:36:37.693Z,49.00
2022-09-10T11:41:46.245Z,48.37
2022-09-10T11:47:10.634Z,49.10
2022-09-10T11:52:17.215Z,48.77
2022-09-10T11:57:39.318Z,48.55
2022-09-10T12:02:57.711Z,49.07
2022-09-10T12:08:26.930Z,48.90
2022-09-10T12:13:34.234Z,48.73
2022-09-10T12:18:46.834Z,48.90
2022-09-10T12:23:53.167Z,50.10
2022-09-10T12:29:04.025Z,48.45
2022-09-10T12:34:18.883Z,48.73
2022-09-10T12:39:27.993Z,48.53
2022-09-10T12:44:39.097Z,48.13
2022-09-10T12:49:53.867Z,48.20
2022-09-10T12:55:23.768Z,49.27
2022-09-10T13:00:33.227Z,49.83
2022-09-10T13:05:49.999Z,49.33
2022-09-10T13:16:10.614Z,48.48
2022-09-10T13:21:27.819Z,48.97
2022-09-10T13:26:38.067Z,49.43
2022-09-10T13:31:49.827Z,49.90
2022-09-10T13:37:24.143Z,48.75
2022-09-10T13:42:36.513Z,48.55
2022-09-10T13:47:51.754Z,49.58
2022-09-10T13:53:00.687Z,48.73
2022-09-10T13:58:09.584Z,49.10
2022-09-10T14:03:19.519Z,49.53
2022-09-10T14:08:37.708Z,48.60
2022-09-10T14:14:19.226Z,48.87
2022-09-10T14:19:30.657Z,48.97
2022-09-10T14:24:48.223Z,48.90
2022-09-10T14:29:56.567Z,48.97
2022-09-10T14:35:23.459Z,48.40
2022-09-10T14:40:31.996Z,48.95
2022-09-10T14:45:42.935Z,48.43
2022-09-10T14:50:48.989Z,48.27
2022-09-10T14:55:53.857Z,48.07
2022-09-10T15:01:00.502Z,48.37
2022-09-10T15:06:06.369Z,48.73
2022-09-10T15:11:17.935Z,49.33
2022-09-10T15:16:26.735Z,49.00
2022-09-10T15:21:34.310Z,49.43
2022-09-10T15:26:39.993Z,50.28
2022-09-10T15:31:45.867Z,50.20
2022-09-10T15:36:53.313Z,48.90
2022-09-10T15:42:01.099Z,48.70
2022-09-10T15:47:06.466Z,48.33
2022-09-10T15:52:11.645Z,49.20
2022-09-10T15:57:16.566Z,49.07
2022-09-10T16:02:23.314Z,49.07
2022-09-10T16:07:29.428Z,49.23
2022-09-10T16:12:35.540Z,48.43
2022-09-10T16:17:41.038Z,48.63
2022-09-10T16:22:48.070Z,48.75
2022-09-10T16:27:53.566Z,48.80
2022-09-10T16:32:58.989Z,48.60
2022-09-10T16:38:05.152Z,48.70
2022-09-10T16:43:11.331Z,48.23
2022-09-10T16:48:16.486Z,48.55
2022-09-10T16:53:22.014Z,48.33
2022-09-10T16:58:30.950Z,48.48
2022-09-10T17:03:36.463Z,48.13
2022-09-10T17:13:48.200Z,49.25
2022-09-10T17:18:59.792Z,49.30
2022-09-10T17:24:08.132Z,49.13
2022-09-10T17:29:15.938Z,48.47
2022-09-10T17:34:21.688Z,48.38
2022-09-10T17:39:29.182Z,48.55
2022-09-10T17:44:34.353Z,48.63
2022-09-10T17:49:39.860Z,49.33
2022-09-10T17:54:45.204Z,48.27
2022-09-10T17:59:51.121Z,48.15
2022-09-10T18:04:56.155Z,48.23
2022-09-10T18:10:03.485Z,48.40
2022-09-10T18:15:11.311Z,48.10
2022-09-10T18:20:19.092Z,47.97
2022-09-10T18:25:30.198Z,47.97
2022-09-10T18:30:50.412Z,47.53
2022-09-10T18:36:16.595Z,47.90
2022-09-10T18:41:33.255Z,47.40
2022-09-10T18:51:44.496Z,47.38
2022-09-10T18:56:50.352Z,47.53
2022-09-10T19:01:57.827Z,47.58
2022-09-10T19:07:03.221Z,48.30
2022-09-10T19:12:08.687Z,48.07
2022-09-10T19:17:15.805Z,47.88
2022-09-10T19:22:21.129Z,47.70
2022-09-10T19:27:26.221Z,47.70
2022-09-10T19:32:32.638Z,47.48
2022-09-10T19:37:38.948Z,47.37
2022-09-10T19:42:43.791Z,47.73
2022-09-10T19:47:48.794Z,47.03
2022-09-10T19:52:54.421Z,48.17
2022-09-10T19:58:00.091Z,47.67
2022-09-10T20:03:06.066Z,48.83
2022-09-10T20:13:18.234Z,47.98
2022-09-10T20:18:31.137Z,50.58
2022-09-10T20:23:37.730Z,52.97
2022-09-10T20:28:43.837Z,48.43
2022-09-10T20:33:52.414Z,47.77
2022-09-10T20:38:58.085Z,47.10
2022-09-10T20:44:03.936Z,47.37
2022-09-10T20:49:10.972Z,47.23
2022-09-10T20:54:18.235Z,47.23
2022-09-10T20:59:27.542Z,47.50
2022-09-10T21:04:30.941Z,48.53
2022-09-10T21:09:36.752Z,47.67
2022-09-10T21:14:41.976Z,47.73
2022-09-10T21:19:49.098Z,47.30
2022-09-10T21:24:54.381Z,46.27
2022-09-10T21:29:59.619Z,48.63
2022-09-10T21:35:05.385Z,48.07
2022-09-10T21:40:11.319Z,47.50
2022-09-10T21:45:18.545Z,47.03
2022-09-10T21:50:24.239Z,46.77
2022-09-10T21:55:31.234Z,47.50
2022-09-10T22:00:36.812Z,46.77
2022-09-10T22:05:42.391Z,48.70
2022-09-10T22:10:47.599Z,47.70
2022-09-10T22:15:54.644Z,47.37
2022-09-10T22:21:03.404Z,48.20
2022-09-10T22:26:16.196Z,48.57
2022-09-10T22:31:24.630Z,50.73
2022-09-10T22:36:34.279Z,50.37
2022-09-10T22:41:41.491Z,48.77
2022-09-10T22:46:46.945Z,47.93
2022-09-10T22:51:53.707Z,47.23
2022-09-10T22:57:00.800Z,47.93
2022-09-10T23:02:06.250Z,49.43
2022-09-10T23:07:11.862Z,47.80
2022-09-10T23:12:19.459Z,48.03
2022-09-10T23:17:24.960Z,46.43
2022-09-10T23:22:29.820Z,47.40
2022-09-10T23:27:35.897Z,46.57
2022-09-10T23:32:43.104Z,46.98
2022-09-10T23:42:52.342Z,47.43
2022-09-10T23:47:58.581Z,46.70
2022-09-10T23:53:04.110Z,46.43
2022-09-10T23:58:09.428Z,46.97
